ADDS METAR Data INFO
IDs: Format: Raw Decoded Include TAF

Data at: 0544 UTC 11 Dec 2017

KARR 110452Z AUTO 28004KT CLR M07/M08 A3008 RMK AO2 SLP196 T10671083 $
KARR 110437Z AUTO 27004KT SCT027 M07/M09 A3008 RMK AO2 T10721089 $
KARR 110405Z AUTO 28005KT BKN027 M07/M09 A3009 RMK AO2 T10721089 $
KARR 110352Z AUTO 28004KT SCT027 M07/M09 A3008 RMK AO2 SLP198 T10721089 $
KARR 110252Z 00000KT 10SM CLR M05/M08 A3008 RMK AO2 SLP197 T10501078 51016 $
KARR 110216Z 28005KT SCT029 M04/M07 A3008 RMK AO2 T10441072 $
KARR 110152Z 29005KT 10SM OVC029 M03/M07 A3008 RMK AO2 SLP195 T10331067 $
KARR 110052Z 30005KT 10SM BKN031 M03/M07 A3006 RMK AO2 SLPNO T10331067 $
KARR 102352Z 31006KT 10SM FEW032 M02/M06 A3004 RMK AO2 SLPNO T10171061 10022 21017 51031 $
KARR 102252Z 30008KT 10SM OVC030 00/M06 A3002 RMK AO2 SLPNO T00001061 $
KARR 102152Z 31010KT 10SM OVC030 00/M06 A2998 RMK AO2 SLPNO T00001061 $
KARR 102124Z 31011KT 10SM OVC030 00/M06 A2996 RMK AO2 T00001061 $
KARR 102052Z 32011KT 10SM OVC027 00/M06 A2994 RMK AO2 SLPNO T00001061 53020 $
KARR 102012Z 33013KT 10SM OVC029 01/M06 A2992 RMK AO2 T00061056 $
KARR 101952Z 31011KT 10SM OVC031 01/M06 A2991 RMK AO2 SLPNO T00111061 $
KARR 101852Z 30013KT 10SM CLR 02/M06 A2989 RMK AO2 SLPNO T00171061 $
KARR 101752Z 27011KT CLR 01/M06 A2988 RMK AO2 SLPNO T00111061 58010 $
KARR 101652Z 26012KT 10SM CLR 00/M07 A2989 RMK AO2 SLPNO T00001067 $
KARR 101552Z COR 23013KT 10SM CLR M02/M08 A2991 RMK AO2 SLPNO T10171078 $
KARR 101452Z 21011KT 10SM CLR M03/M08 A2991 RMK AO2 SLPNO T10281083 $
KARR 101352Z 17008KT 10SM CLR M05/M09 A2991 RMK AO2 SLPNO T10501089 $
KARR 101252Z A2993 RMK AO2 SLPNO
KARR 101152Z AUTO A2995 RMK AO2 SLPNO 57013 PWINO FZRANO
KARR 101052Z AUTO A2996 RMK AO2 SLPNO PWINO FZRANO
KARR 100952Z AUTO A2998 RMK AO2 SLPNO PWINO FZRANO
KARR 100852Z AUTO A2999 RMK AO2 SLPNO 58023 PWINO FZRANO
KARR 100752Z AUTO A3003 RMK AO2 SLPNO PWINO FZRANO
KARR 100652Z AUTO A3004 RMK AO2 SLPNO PWINO FZRANO
KARR 100552Z AUTO A3006 RMK AO2 SLPNO 58007 PWINO FZRANO
KARR 100452Z AUTO A3008 RMK AO2 SLPNO PWINO FZRANO
KARR 100352Z AUTO A3008 RMK AO2 SLPNO PWINO FZRANO
KARR 100252Z AUTO A3008 RMK AO2 SLPNO 51013 PWINO FZRANO
KARR 100152Z A3008 RMK AO2 SLPNO
KARR 100052Z A3007 RMK AO2 SLPNO
KARR 092352Z A3004 RMK AO2 SLPNO
KARR 092252Z A3002 RMK AO2 SLPNO $
KARR 092152Z 33012KT 10SM FEW042 M03/M09 A2998 RMK AO2 PK WND 33027/2054 SLP162 T10281094 $
KARR 092052Z 32021G27KT 10SM CLR M02/M09 A2994 RMK AO2 PK WND 33029/2009 SLP148 T10171089 53031 $
KARR 091952Z 33022G28KT 10SM FEW038 BKN065 M01/M08 A2991 RMK AO2 PK WND 31033/1933 SLP135 T10111083 $
KARR 091852Z 33022G30KT 10SM FEW028 OVC060 M01/M08 A2987 RMK AO2 PK WND 32033/1842 SLP123 T10111083 $
KARR 091752Z 33022G34KT 10SM FEW024 BKN060 M02/M08 A2985 RMK AO2 PK WND 33034/1744 SLP116 60000 T10221078 11011 21022 51026 $